Time;durP1;ratioP1;P1;durP2;ratioP2;P2;SDS_P1;SDS_P2;PMS_P1;PMS_P2;Temp;Humidity;BMP_temperature;BMP_pressure;BME280_temperature;BME280_humidity;BME280_pressure;Samples;Min_cycle;Max_cycle;Signal;HPM_P1;HPM_P2
2021/06/03 00:00:58;;;;;;;49.95;29.13;;;13.80;99.90;;;;;;5011231;28;20022;-83
2021/06/03 00:03:25;;;;;;;51.75;28.80;;;13.70;99.90;;;;;;5010863;28;20121;-83
2021/06/03 00:05:54;;;;;;;49.13;28.35;;;13.70;99.90;;;;;;5010872;28;20112;-83
2021/06/03 00:08:22;;;;;;;47.97;28.88;;;13.70;99.90;;;;;;5011911;28;20018;-83
2021/06/03 00:10:54;;;;;;;57.22;28.85;;;13.70;99.90;;;;;;5011219;28;20069;-82
2021/06/03 00:13:22;;;;;;;56.03;28.83;;;13.70;99.90;;;;;;5011178;28;20121;-83
2021/06/03 00:15:49;;;;;;;51.67;26.00;;;13.70;99.90;;;;;;5010406;28;20089;-82
2021/06/03 00:18:15;;;;;;;51.55;26.98;;;13.70;99.90;;;;;;5010952;28;20084;-83
2021/06/03 00:20:41;;;;;;;50.35;28.42;;;13.70;99.90;;;;;;5012191;28;20025;-83
2021/06/03 00:23:07;;;;;;;52.38;30.35;;;13.60;99.90;;;;;;5010890;28;20018;-83
2021/06/03 00:25:34;;;;;;;51.25;30.67;;;13.60;99.90;;;;;;5011999;28;20037;-82
2021/06/03 00:28:00;;;;;;;60.17;31.42;;;13.50;99.90;;;;;;5012110;28;20574;-83
2021/06/03 00:30:26;;;;;;;58.03;31.33;;;13.40;99.90;;;;;;5011083;28;20033;-82
2021/06/03 00:32:51;;;;;;;48.63;30.55;;;13.40;99.90;;;;;;5012022;28;20029;-83
2021/06/03 00:35:19;;;;;;;54.58;30.13;;;13.40;99.90;;;;;;5010206;28;20112;-82
2021/06/03 00:37:45;;;;;;;59.90;30.48;;;13.40;99.90;;;;;;5010379;28;20030;-82
2021/06/03 00:40:13;;;;;;;52.88;29.27;;;13.40;99.90;;;;;;5010475;28;20030;-82
2021/06/03 00:42:40;;;;;;;45.05;29.33;;;13.40;99.90;;;;;;5012003;28;20041;-83
2021/06/03 00:45:09;;;;;;;53.40;31.90;;;13.40;99.90;;;;;;5011799;28;20022;-82
2021/06/03 00:47:35;;;;;;;60.60;32.63;;;13.40;99.90;;;;;;5010680;28;20520;-83
2021/06/03 00:50:00;;;;;;;58.75;32.50;;;13.40;99.90;;;;;;5010883;28;20029;-83
2021/06/03 00:52:26;;;;;;;49.17;32.85;;;13.50;99.90;;;;;;5012016;28;20108;-83
2021/06/03 00:54:52;;;;;;;54.40;33.53;;;13.40;99.90;;;;;;5011648;28;20037;-83
2021/06/03 00:57:17;;;;;;;60.97;31.80;;;13.50;99.90;;;;;;5010598;28;20034;-83
2021/06/03 00:59:43;;;;;;;58.30;32.70;;;13.40;99.90;;;;;;5012016;28;20554;-83
2021/06/03 01:02:09;;;;;;;56.63;30.75;;;13.40;99.90;;;;;;5010426;28;20482;-83
2021/06/03 01:04:35;;;;;;;49.78;30.17;;;13.40;99.90;;;;;;5011603;28;20029;-83
2021/06/03 01:07:00;;;;;;;49.08;29.15;;;13.40;99.90;;;;;;5011423;28;20512;-82
2021/06/03 01:09:29;;;;;;;47.30;28.42;;;13.30;99.90;;;;;;5014127;28;20447;-82
2021/06/03 01:12:07;;;;;;;52.90;28.63;;;13.30;99.90;;;;;;5014302;28;20057;-83
2021/06/03 01:14:39;;;;;;;41.55;26.60;;;13.30;99.90;;;;;;5013525;28;20421;-83
2021/06/03 01:17:05;;;;;;;49.28;27.02;;;13.30;99.90;;;;;;5014047;28;20517;-83
2021/06/03 01:19:35;;;;;;;51.60;29.25;;;13.30;99.90;;;;;;5015719;28;20471;-83
2021/06/03 01:22:12;;;;;;;47.05;27.88;;;13.30;99.90;;;;;;5014116;28;20022;-82
2021/06/03 01:24:45;;;;;;;53.55;29.50;;;13.30;99.90;;;;;;5015027;28;20029;-83
2021/06/03 01:27:24;;;;;;;39.63;24.23;;;13.30;99.90;;;;;;5015231;28;20076;-82
2021/06/03 01:30:16;;;;;;;41.17;24.73;;;13.30;99.90;;;;;;5014165;28;20288;-82
2021/06/03 01:32:50;;;;;;;39.63;24.65;;;13.30;99.90;;;;;;5013873;28;20180;-82
2021/06/03 01:35:21;;;;;;;43.90;23.65;;;13.30;99.90;;;;;;5014524;28;20032;-82
2021/06/03 01:37:48;;;;;;;38.15;22.45;;;13.20;99.90;;;;;;5014538;28;20049;-82
2021/06/03 01:40:15;;;;;;;38.58;22.25;;;13.20;99.90;;;;;;5030333;28;20034;-82
2021/06/03 01:42:43;;;;;;;38.40;21.88;;;13.20;99.90;;;;;;5015111;28;20064;-82
2021/06/03 01:45:09;;;;;;;39.33;22.55;;;13.20;99.90;;;;;;5014451;28;20060;-83
2021/06/03 01:47:35;;;;;;;36.38;20.73;;;13.20;99.90;;;;;;5013583;28;20036;-82
2021/06/03 01:50:03;;;;;;;37.85;21.67;;;13.20;99.90;;;;;;5013441;28;20096;-82
2021/06/03 01:52:28;;;;;;;40.30;19.75;;;13.20;99.90;;;;;;5013469;28;20117;-82
2021/06/03 01:54:54;;;;;;;37.80;20.42;;;13.20;99.90;;;;;;5014328;28;20534;-82
2021/06/03 01:57:20;;;;;;;42.25;19.40;;;13.20;99.90;;;;;;5014196;28;20061;-82
2021/06/03 01:59:46;;;;;;;34.03;17.83;;;13.30;99.90;;;;;;5013683;28;20018;-83
2021/06/03 02:02:11;;;;;;;39.63;20.08;;;13.30;99.90;;;;;;5014545;28;20034;-82
2021/06/03 02:04:37;;;;;;;30.52;18.65;;;13.30;99.90;;;;;;5014102;28;20030;-82
2021/06/03 02:07:03;;;;;;;29.98;17.48;;;13.30;99.90;;;;;;5029633;28;20121;-82
2021/06/03 02:09:29;;;;;;;35.03;17.25;;;13.30;99.90;;;;;;5014199;28;20026;-82
2021/06/03 02:11:56;;;;;;;32.17;18.10;;;13.40;99.90;;;;;;5014300;28;20120;-82
2021/06/03 02:14:26;;;;;;;32.17;18.08;;;13.40;99.90;;;;;;5014014;28;20076;-83
2021/06/03 02:16:59;;;;;;;26.50;16.75;;;13.40;99.90;;;;;;5014166;28;20026;-82
2021/06/03 02:19:32;;;;;;;27.48;15.23;;;13.40;99.90;;;;;;5013415;28;20152;-83
2021/06/03 02:21:58;;;;;;;30.00;17.40;;;13.40;99.90;;;;;;5014313;28;20445;-82
2021/06/03 02:24:26;;;;;;;38.03;16.77;;;13.50;99.90;;;;;;5012611;28;20026;-82
2021/06/03 02:26:51;;;;;;;26.15;16.48;;;13.50;99.90;;;;;;5012452;28;20052;-83
2021/06/03 02:29:18;;;;;;;26.48;16.15;;;13.60;99.90;;;;;;5014132;28;20479;-83
2021/06/03 02:31:44;;;;;;;25.50;16.48;;;13.60;99.90;;;;;;5013970;28;20026;-82
2021/06/03 02:34:10;;;;;;;24.13;15.80;;;13.60;99.90;;;;;;5013454;28;20054;-83
2021/06/03 02:36:36;;;;;;;35.28;17.40;;;13.60;99.90;;;;;;5012446;28;20111;-82
2021/06/03 02:39:04;;;;;;;25.05;15.13;;;13.60;99.90;;;;;;5012268;28;20038;-82
2021/06/03 02:41:30;;;;;;;36.30;16.60;;;13.70;99.90;;;;;;5013879;28;20020;-82
2021/06/03 02:43:56;;;;;;;26.65;16.60;;;13.70;99.90;;;;;;5013401;28;20405;-82
2021/06/03 02:46:23;;;;;;;25.90;15.20;;;13.80;99.90;;;;;;5012019;28;20030;-83
2021/06/03 02:48:49;;;;;;;28.35;15.10;;;13.80;99.90;;;;;;5012845;28;20034;-82
2021/06/03 02:51:15;;;;;;;24.08;15.77;;;13.80;99.90;;;;;;5012639;28;20041;-82
2021/06/03 02:53:43;;;;;;;28.20;15.32;;;13.70;99.90;;;;;;5013261;28;20505;-82
2021/06/03 02:56:09;;;;;;;26.45;13.95;;;13.80;99.90;;;;;;5012276;28;20030;-83
2021/06/03 02:58:34;;;;;;;28.95;15.60;;;13.80;99.90;;;;;;5012159;28;20101;-83
2021/06/03 03:01:00;;;;;;;22.67;14.48;;;13.80;99.90;;;;;;5013464;28;20588;-83
2021/06/03 03:03:26;;;;;;;28.98;15.20;;;13.80;99.90;;;;;;5013058;28;20052;-83
2021/06/03 03:05:52;;;;;;;27.13;14.93;;;13.90;99.90;;;;;;5013263;28;20388;-82
2021/06/03 03:08:18;;;;;;;24.33;15.18;;;13.90;99.90;;;;;;5011698;28;20022;-83
2021/06/03 03:10:48;;;;;;;19.13;13.60;;;14.00;99.90;;;;;;5013354;28;20505;-83
2021/06/03 03:13:13;;;;;;;32.53;14.55;;;13.90;99.90;;;;;;5011934;28;20026;-82
2021/06/03 03:15:39;;;;;;;25.00;14.27;;;13.90;99.90;;;;;;5011564;28;20044;-82
2021/06/03 03:18:06;;;;;;;18.92;13.20;;;13.90;99.90;;;;;;5011848;28;20037;-82
2021/06/03 03:20:32;;;;;;;20.80;13.13;;;13.90;99.90;;;;;;5013206;28;20393;-82
2021/06/03 03:22:58;;;;;;;26.33;13.82;;;13.90;99.90;;;;;;5011510;28;20026;-82
2021/06/03 03:25:26;;;;;;;24.27;12.93;;;14.00;99.90;;;;;;5012934;28;20037;-82
2021/06/03 03:27:52;;;;;;;19.85;13.25;;;14.00;99.90;;;;;;5012842;28;20100;-82
2021/06/03 03:30:19;;;;;;;17.73;11.77;;;14.10;99.90;;;;;;5011536;28;20169;-83
2021/06/03 03:32:45;;;;;;;36.90;13.98;;;14.10;99.90;;;;;;5012716;28;20026;-83
2021/06/03 03:35:12;;;;;;;25.58;14.15;;;14.10;99.90;;;;;;5012473;28;20033;-84
2021/06/03 03:37:39;;;;;;;23.83;13.07;;;14.10;99.90;;;;;;5012538;28;20156;-84
2021/06/03 03:40:06;;;;;;;28.27;14.25;;;14.00;99.90;;;;;;5012397;28;20037;-84
2021/06/03 03:42:32;;;;;;;24.70;13.80;;;14.00;99.90;;;;;;5012501;28;20498;-83
2021/06/03 03:44:58;;;;;;;30.38;14.15;;;13.90;99.90;;;;;;5012216;28;20030;-83
2021/06/03 03:47:23;;;;;;;21.40;13.50;;;14.00;99.90;;;;;;5012507;28;20041;-83
2021/06/03 03:49:49;;;;;;;27.55;14.48;;;13.80;99.90;;;;;;5011383;28;20118;-83
2021/06/03 03:52:15;;;;;;;24.33;14.80;;;13.80;99.90;;;;;;5012503;28;20486;-83
2021/06/03 03:54:40;;;;;;;21.65;12.85;;;13.90;99.90;;;;;;5010862;28;20100;-83
2021/06/03 03:57:06;;;;;;;25.17;13.15;;;13.80;99.90;;;;;;5011035;28;20092;-83
2021/06/03 03:59:32;;;;;;;22.60;14.23;;;13.80;99.90;;;;;;5011437;28;20018;-82
2021/06/03 04:01:57;;;;;;;31.75;15.25;;;13.80;99.90;;;;;;5012378;28;20033;-83
2021/06/03 04:04:24;;;;;;;31.25;14.18;;;13.70;99.90;;;;;;5011892;28;20192;-83
2021/06/03 04:06:50;;;;;;;22.50;14.35;;;13.70;99.90;;;;;;5011957;28;20542;-83
2021/06/03 04:09:17;;;;;;;23.92;14.98;;;13.70;99.90;;;;;;5012080;28;20522;-83
2021/06/03 04:11:43;;;;;;;17.90;12.10;;;13.60;99.90;;;;;;5012209;28;20087;-82
2021/06/03 04:14:08;;;;;;;21.40;13.30;;;13.50;99.90;;;;;;5010600;28;20025;-83
2021/06/03 04:16:35;;;;;;;24.40;12.70;;;13.60;99.90;;;;;;5010787;28;20065;-82
2021/06/03 04:19:01;;;;;;;19.80;11.95;;;13.60;99.90;;;;;;5010952;28;20056;-82
2021/06/03 04:21:26;;;;;;;20.35;12.68;;;13.50;99.90;;;;;;5012158;28;20030;-83
2021/06/03 04:23:52;;;;;;;18.98;12.95;;;13.50;99.90;;;;;;5010442;28;20072;-83
2021/06/03 04:26:18;;;;;;;31.63;14.40;;;13.50;99.90;;;;;;5010784;28;20048;-83
2021/06/03 04:28:44;;;;;;;21.42;12.30;;;13.50;99.90;;;;;;5010765;28;20030;-82
2021/06/03 04:31:10;;;;;;;17.42;11.93;;;13.70;99.90;;;;;;5012079;28;20030;-82
2021/06/03 04:33:36;;;;;;;17.40;11.40;;;13.70;99.90;;;;;;5011688;28;20064;-83
2021/06/03 04:36:02;;;;;;;20.90;11.38;;;13.80;99.90;;;;;;5026936;28;20030;-83
2021/06/03 04:38:28;;;;;;;16.40;12.02;;;13.80;99.90;;;;;;5011674;28;20092;-83
2021/06/03 04:40:53;;;;;;;28.95;13.35;;;13.80;99.90;;;;;;5010645;28;20483;-83
2021/06/03 04:43:19;;;;;;;22.17;12.68;;;14.10;99.90;;;;;;5012820;28;20029;-83
2021/06/03 04:45:45;;;;;;;23.40;11.90;;;14.00;99.90;;;;;;5015444;28;20521;-82
2021/06/03 04:48:11;;;;;;;21.27;12.77;;;14.10;99.90;;;;;;5014603;28;20030;-83
2021/06/03 04:50:37;;;;;;;19.42;12.02;;;14.30;99.90;;;;;;5015912;28;20042;-82
2021/06/03 04:53:04;;;;;;;18.20;12.38;;;14.20;99.90;;;;;;5014322;28;20037;-82
2021/06/03 04:55:31;;;;;;;17.80;11.90;;;14.30;99.90;;;;;;5014258;28;20129;-82
2021/06/03 04:57:57;;;;;;;16.23;12.50;;;14.40;99.90;;;;;;5014308;28;20029;-83
2021/06/03 05:00:27;;;;;;;17.50;12.18;;;14.60;99.90;;;;;;5015547;28;20482;-83
2021/06/03 05:02:53;;;;;;;21.02;11.50;;;14.80;99.90;;;;;;5015619;28;20025;-82
2021/06/03 05:05:21;;;;;;;22.85;11.00;;;15.00;99.90;;;;;;5015192;28;20053;-83
2021/06/03 05:07:47;;;;;;;17.95;10.75;;;15.40;99.90;;;;;;5015315;28;20025;-83
2021/06/03 05:10:14;;;;;;;16.67;10.32;;;15.60;99.90;;;;;;4996055;28;20026;-83
2021/06/03 05:12:40;;;;;;;17.30;10.35;;;15.90;99.90;;;;;;4995965;28;20479;-83
2021/06/03 05:15:07;;;;;;;17.55;9.68;;;15.90;99.90;;;;;;5004493;28;20471;-82
2021/06/03 05:17:34;;;;;;;17.08;10.93;;;16.10;99.90;;;;;;5012622;28;20030;-83
2021/06/03 05:20:00;;;;;;;14.75;10.25;;;16.20;99.90;;;;;;5015274;28;20022;-83
2021/06/03 05:22:27;;;;;;;18.67;10.20;;;16.20;99.90;;;;;;5015271;28;20049;-82
2021/06/03 05:24:52;;;;;;;22.58;10.38;;;16.50;99.90;;;;;;5013578;28;20026;-83
2021/06/03 05:27:18;;;;;;;13.82;9.52;;;16.40;99.90;;;;;;5013872;28;20026;-83
2021/06/03 05:29:44;;;;;;;19.50;10.18;;;16.50;99.90;;;;;;5015122;28;20036;-83
2021/06/03 05:32:09;;;;;;;17.67;9.73;;;16.50;99.90;;;;;;5015092;28;20037;-82
2021/06/03 05:34:35;;;;;;;15.40;9.45;;;16.40;99.90;;;;;;5014647;28;20036;-82
2021/06/03 05:37:00;;;;;;;20.55;9.60;;;16.50;99.90;;;;;;5013584;28;20030;-83
2021/06/03 05:39:26;;;;;;;18.33;9.25;;;16.70;99.90;;;;;;5013224;28;20541;-82
2021/06/03 05:41:52;;;;;;;15.65;9.05;;;16.80;99.90;;;;;;5014909;28;20022;-83
2021/06/03 05:44:17;;;;;;;14.88;9.43;;;17.00;99.90;;;;;;5014425;28;20017;-81
2021/06/03 05:46:43;;;;;;;17.48;10.07;;;17.20;99.90;;;;;;5013519;28;20052;-82
2021/06/03 05:49:10;;;;;;;24.55;9.02;;;17.30;99.90;;;;;;5013291;28;20630;-83
2021/06/03 05:51:38;;;;;;;17.75;8.90;;;17.30;99.90;;;;;;5013453;28;20030;-82
2021/06/03 05:54:04;;;;;;;13.52;8.50;;;17.20;99.90;;;;;;5013047;28;20041;-83
2021/06/03 05:56:29;;;;;;;13.55;9.32;;;16.90;99.90;;;;;;5013277;28;20509;-84
2021/06/03 05:58:55;;;;;;;24.00;9.15;;;16.80;99.90;;;;;;5013326;28;20056;-82
2021/06/03 06:01:21;;;;;;;15.18;8.68;;;16.60;99.90;;;;;;5013037;28;20079;-82
2021/06/03 06:03:54;;;;;;;13.77;9.70;;;16.60;99.90;;;;;;5012292;28;20033;-82
2021/06/03 06:06:25;;;;;;;20.48;9.82;;;16.70;99.90;;;;;;5012936;28;20025;-82
2021/06/03 06:08:52;;;;;;;14.15;8.95;;;17.00;99.90;;;;;;5012747;28;20158;-83
2021/06/03 06:11:18;;;;;;;20.35;9.07;;;17.10;99.90;;;;;;5012973;28;20398;-82
2021/06/03 06:13:44;;;;;;;26.48;10.77;;;17.10;99.90;;;;;;5012366;28;20494;-82
2021/06/03 06:16:10;;;;;;;13.15;9.10;;;17.10;99.90;;;;;;5014025;28;20033;-83
2021/06/03 06:18:37;;;;;;;15.23;9.82;;;17.10;99.90;;;;;;5014064;28;20907;-83
2021/06/03 06:21:03;;;;;;;19.50;9.60;;;17.10;99.90;;;;;;5013063;28;20036;-84
2021/06/03 06:23:28;;;;;;;13.77;9.18;;;17.50;99.90;;;;;;5012864;28;20407;-83
2021/06/03 06:25:54;;;;;;;13.30;8.55;;;17.90;99.90;;;;;;5012509;28;20030;-83
2021/06/03 06:28:20;;;;;;;18.90;9.15;;;18.20;99.90;;;;;;5012502;28;20033;-82
2021/06/03 06:30:45;;;;;;;16.27;8.57;;;18.40;99.90;;;;;;5012702;28;20498;-83
2021/06/03 06:33:14;;;;;;;17.60;8.50;;;18.70;99.90;;;;;;5013447;28;20054;-84
2021/06/03 06:35:39;;;;;;;13.10;8.73;;;18.80;99.90;;;;;;5013747;28;20041;-83
2021/06/03 06:38:05;;;;;;;12.07;8.57;;;18.60;99.90;;;;;;5012971;28;20642;-84
2021/06/03 06:40:31;;;;;;;14.90;9.07;;;18.40;99.90;;;;;;5013733;28;20057;-83
2021/06/03 06:42:57;;;;;;;12.70;8.05;;;18.50;99.90;;;;;;5013740;28;20026;-83
2021/06/03 06:45:24;;;;;;;20.27;8.23;;;18.60;99.90;;;;;;5013133;28;20080;-84
2021/06/03 06:47:50;;;;;;;16.42;8.05;;;18.80;99.90;;;;;;5012156;28;20025;-83
2021/06/03 06:50:16;;;;;;;14.13;8.18;;;19.00;99.90;;;;;;5013620;28;20076;-83
2021/06/03 06:52:42;;;;;;;15.60;8.05;;;19.10;99.90;;;;;;5012249;28;20091;-83
2021/06/03 06:55:09;;;;;;;17.10;8.15;;;19.20;99.90;;;;;;5012936;28;20482;-82
2021/06/03 06:57:35;;;;;;;18.30;7.68;;;19.70;99.90;;;;;;5011937;28;20703;-84
2021/06/03 07:00:04;;;;;;;12.40;7.38;;;19.80;99.90;;;;;;5013531;28;20057;-84
2021/06/03 07:02:29;;;;;;;16.23;7.30;;;20.20;99.90;;;;;;5011994;28;20018;-83
2021/06/03 07:04:55;;;;;;;14.55;8.38;;;20.30;99.90;;;;;;5011234;28;20037;-83
2021/06/03 07:07:21;;;;;;;20.23;8.00;;;20.40;99.90;;;;;;5011589;28;20125;-82
2021/06/03 07:09:46;;;;;;;11.55;7.25;;;20.40;99.90;;;;;;5011616;28;20041;-82
2021/06/03 07:12:12;;;;;;;15.77;8.30;;;20.50;99.90;;;;;;5011883;28;20049;-83
2021/06/03 07:14:38;;;;;;;14.10;6.93;;;20.70;99.90;;;;;;5012639;28;20402;-83
2021/06/03 07:17:04;;;;;;;11.05;7.43;;;20.80;99.90;;;;;;5011586;28;20029;-84
2021/06/03 07:19:30;;;;;;;13.40;6.85;;;20.80;99.90;;;;;;5011718;28;20120;-83
2021/06/03 07:21:56;;;;;;;11.95;7.55;;;20.90;99.90;;;;;;5011819;28;20026;-82
2021/06/03 07:24:22;;;;;;;9.52;7.05;;;20.90;99.90;;;;;;5011215;28;20032;-83
2021/06/03 07:26:48;;;;;;;8.95;6.63;;;21.00;99.90;;;;;;5012838;28;20528;-83
2021/06/03 07:29:13;;;;;;;21.92;8.15;;;21.00;99.90;;;;;;5011602;28;20038;-82
2021/06/03 07:31:39;;;;;;;11.35;7.30;;;21.20;99.90;;;;;;5011694;28;20032;-82
2021/06/03 07:34:05;;;;;;;13.98;6.72;;;21.10;99.90;;;;;;5012436;28;20022;-82
2021/06/03 07:36:33;;;;;;;10.95;6.40;;;21.30;99.90;;;;;;5011197;28;20406;-82
2021/06/03 07:38:59;;;;;;;12.98;7.20;;;21.40;99.90;;;;;;5011234;28;20061;-82
2021/06/03 07:41:25;;;;;;;11.13;6.40;;;21.50;99.90;;;;;;5012583;28;20026;-82
2021/06/03 07:43:51;;;;;;;11.93;7.53;;;21.60;99.90;;;;;;5012302;28;20045;-82
2021/06/03 07:46:17;;;;;;;11.13;6.80;;;21.80;99.90;;;;;;5011198;28;20025;-80
2021/06/03 07:48:43;;;;;;;10.73;6.95;;;21.80;99.90;;;;;;5012453;28;20029;-82
2021/06/03 07:51:11;;;;;;;13.15;7.47;;;21.90;99.90;;;;;;5012549;28;20037;-81
2021/06/03 07:53:37;;;;;;;10.50;6.22;;;22.00;99.90;;;;;;5027299;28;20029;-81
2021/06/03 07:56:03;;;;;;;12.10;6.53;;;22.10;99.90;;;;;;5011002;28;20041;-79
2021/06/03 07:58:28;;;;;;;13.73;6.88;;;22.30;99.90;;;;;;5012376;28;20022;-82
2021/06/03 08:00:54;;;;;;;19.08;6.72;;;22.40;99.90;;;;;;5011000;28;20021;-81
2021/06/03 08:03:20;;;;;;;12.93;6.40;;;22.60;99.90;;;;;;5003973;28;20079;-83
2021/06/03 08:05:45;;;;;;;22.70;6.82;;;22.60;99.90;;;;;;5007695;28;20104;-82
2021/06/03 08:08:11;;;;;;;13.50;7.03;;;22.80;99.90;;;;;;5010728;28;20030;-81
2021/06/03 08:10:40;;;;;;;18.05;6.20;;;22.90;99.90;;;;;;5010815;28;20036;-81
2021/06/03 08:13:10;;;;;;;14.48;6.30;;;23.00;99.90;;;;;;5009344;28;20037;-81
2021/06/03 08:15:38;;;;;;;14.52;6.35;;;23.30;99.90;;;;;;5011691;28;20105;-83
2021/06/03 08:18:04;;;;;;;11.63;5.70;;;23.30;99.90;;;;;;5011092;28;20519;-83
2021/06/03 08:20:55;;;;;;;8.05;5.47;;;23.40;99.90;;;;;;5012214;28;20046;-84
2021/06/03 08:23:21;;;;;;;9.27;6.35;;;23.80;99.90;;;;;;5010690;28;20030;-83
2021/06/03 08:25:47;;;;;;;10.50;6.00;;;23.90;99.90;;;;;;5010414;28;20520;-86
2021/06/03 08:28:13;;;;;;;10.77;5.60;;;24.20;99.90;;;;;;5011923;28;20053;-82
2021/06/03 08:30:40;;;;;;;12.65;5.63;;;24.50;99.90;;;;;;5012139;28;20556;-85
2021/06/03 08:33:06;;;;;;;12.13;5.45;;;24.50;99.90;;;;;;5010685;28;20142;-85
2021/06/03 08:35:32;;;;;;;22.20;6.15;;;24.50;99.90;;;;;;5007410;28;20037;-83
2021/06/03 08:38:04;;;;;;;9.40;5.93;;;24.60;99.90;;;;;;5006522;28;20033;-83
2021/06/03 08:40:37;;;;;;;8.93;4.72;;;24.80;99.90;;;;;;5004243;28;20615;-82
2021/06/03 08:43:05;;;;;;;9.13;5.88;;;24.90;99.90;;;;;;4999585;28;20022;-84
2021/06/03 08:45:33;;;;;;;9.20;5.55;;;24.80;99.90;;;;;;5006297;28;20109;-85
2021/06/03 08:47:59;;;;;;;9.68;5.40;;;25.10;99.90;;;;;;5007669;28;20026;-86
2021/06/03 08:50:29;;;;;;;8.30;5.63;;;25.30;99.90;;;;;;5006209;28;20061;-87
2021/06/03 08:52:55;;;;;;;16.60;6.13;;;25.40;99.90;;;;;;4998229;28;20081;-85
2021/06/03 08:58:14;;;;;;;15.98;5.53;;;25.50;99.90;;;;;;5003561;28;20076;-84
2021/06/03 09:00:41;;;;;;;13.25;5.70;;;25.50;99.90;;;;;;5006268;28;20029;-84
2021/06/03 09:03:07;;;;;;;11.43;5.75;;;25.50;99.90;;;;;;5006429;28;20022;-82
2021/06/03 09:05:33;;;;;;;9.02;4.85;;;25.60;99.90;;;;;;5006386;28;20517;-83
2021/06/03 09:08:18;;;;;;;12.63;5.05;;;25.70;99.90;;;;;;5002016;28;20042;-83
2021/06/03 09:10:43;;;;;;;14.40;5.53;;;25.80;99.90;;;;;;5023507;28;20030;-86
2021/06/03 09:13:20;;;;;;;9.82;4.40;;;26.00;99.90;;;;;;5007117;28;20044;-85
2021/06/03 09:15:55;;;;;;;10.95;4.95;;;26.30;99.90;;;;;;5008160;28;20026;-87
2021/06/03 09:18:36;;;;;;;8.20;5.20;;;26.60;99.90;;;;;;5007077;28;20030;-87
2021/06/03 09:21:28;;;;;;;22.23;5.22;;;27.10;99.90;;;;;;5007271;28;20030;-84
2021/06/03 09:24:10;;;;;;;18.00;5.45;;;27.10;99.90;;;;;;5003635;28;20026;-84
2021/06/03 09:26:48;;;;;;;10.15;4.68;;;26.70;99.90;;;;;;5006997;28;20034;-84
2021/06/03 09:29:20;;;;;;;7.60;4.05;;;26.50;99.90;;;;;;5008638;28;20022;-85
2021/06/03 09:31:45;;;;;;;8.50;4.55;;;26.70;99.90;;;;;;5010508;28;20375;-83
2021/06/03 09:34:18;;;;;;;7.80;4.45;;;26.80;99.90;;;;;;5011712;28;20029;-84
2021/06/03 09:36:54;;;;;;;11.05;4.65;;;27.00;99.90;;;;;;5010462;28;20037;-84
2021/06/03 09:39:19;;;;;;;11.20;5.18;;;27.10;99.90;;;;;;5010468;28;20164;-82
2021/06/03 09:42:02;;;;;;;9.93;4.50;;;27.40;99.90;;;;;;5010300;28;20117;-85
2021/06/03 09:44:39;;;;;;;10.85;4.47;;;27.50;99.90;;;;;;5011698;28;20026;-83
2021/06/03 09:47:09;;;;;;;9.93;4.93;;;27.20;99.90;;;;;;5010543;28;20076;-83
2021/06/03 09:49:39;;;;;;;15.75;4.45;;;26.80;99.90;;;;;;5011959;28;20087;-83
2021/06/03 09:52:08;;;;;;;8.02;3.47;;;26.30;99.90;;;;;;5010023;28;20100;-82
2021/06/03 09:54:34;;;;;;;10.52;4.57;;;25.90;99.90;;;;;;5009873;28;20053;-85
2021/06/03 09:57:03;;;;;;;13.80;4.35;;;25.70;99.90;;;;;;5008280;28;20108;-82
2021/06/03 09:59:45;;;;;;;9.57;4.55;;;25.40;99.90;;;;;;5009559;28;20483;-82
2021/06/03 10:02:17;;;;;;;8.07;3.95;;;25.40;99.90;;;;;;5010266;28;20085;-85
2021/06/03 10:04:48;;;;;;;12.07;4.82;;;25.50;99.90;;;;;;5010242;28;20092;-83
2021/06/03 10:07:22;;;;;;;11.68;4.40;;;25.60;99.90;;;;;;5010797;28;20404;-83
2021/06/03 10:09:55;;;;;;;9.00;4.80;;;25.70;99.90;;;;;;5009385;28;20026;-83
2021/06/03 10:12:23;;;;;;;11.82;4.03;;;25.80;99.90;;;;;;5010754;28;20036;-83
2021/06/03 10:14:50;;;;;;;12.23;4.13;;;25.80;99.90;;;;;;5010803;28;20083;-83
2021/06/03 10:17:18;;;;;;;8.35;4.22;;;25.80;99.90;;;;;;5009717;28;20117;-85
2021/06/03 10:19:46;;;;;;;7.65;4.18;;;25.70;99.90;;;;;;5010701;28;20088;-85
2021/06/03 10:22:13;;;;;;;10.57;4.75;;;25.60;99.90;;;;;;5009735;28;20033;-84
2021/06/03 10:25:02;;;;;;;9.25;3.85;;;25.30;99.90;;;;;;5010517;28;20101;-83
2021/06/03 10:27:33;;;;;;;9.20;3.97;;;25.10;99.90;;;;;;5009685;28;20053;-84
2021/06/03 10:30:01;;;;;;;9.75;4.60;;;24.80;99.90;;;;;;5010546;28;20026;-84
2021/06/03 10:32:29;;;;;;;9.35;4.68;;;24.90;99.90;;;;;;5010914;28;20022;-84
2021/06/03 10:34:55;;;;;;;8.63;4.32;;;25.50;99.90;;;;;;5010607;28;20446;-83
2021/06/03 10:37:23;;;;;;;18.17;4.68;;;26.00;99.90;;;;;;5010043;28;20057;-82
2021/06/03 10:39:51;;;;;;;12.90;4.63;;;25.90;99.90;;;;;;5010261;28;20076;-81
2021/06/03 10:42:19;;;;;;;10.15;4.97;;;25.80;99.90;;;;;;5010533;28;20033;-81
2021/06/03 10:44:46;;;;;;;11.93;4.28;;;26.00;99.90;;;;;;5010483;28;20080;-83
2021/06/03 10:47:13;;;;;;;9.35;4.90;;;26.20;99.90;;;;;;5008947;28;20033;-83
2021/06/03 10:49:39;;;;;;;9.70;4.68;;;25.90;99.90;;;;;;5025766;28;20394;-84
2021/06/03 10:52:07;;;;;;;6.50;4.25;;;25.90;99.90;;;;;;5010324;28;20068;-83
2021/06/03 10:54:42;;;;;;;8.38;4.15;;;25.80;99.90;;;;;;5008923;28;20022;-83
2021/06/03 10:57:08;;;;;;;10.93;4.18;;;26.10;99.90;;;;;;5005716;28;20061;-82
2021/06/03 10:59:36;;;;;;;12.90;4.65;;;25.80;99.90;;;;;;5010020;28;20443;-82
2021/06/03 11:02:03;;;;;;;14.73;4.57;;;25.50;99.90;;;;;;5010458;28;20128;-82
2021/06/03 11:04:33;;;;;;;16.45;4.47;;;25.60;99.90;;;;;;5008945;28;20026;-84
2021/06/03 11:06:59;;;;;;;7.43;4.03;;;25.80;99.90;;;;;;5008767;28;20037;-84
2021/06/03 11:09:30;;;;;;;5.15;3.67;;;25.50;99.90;;;;;;5010444;28;20385;-86
2021/06/03 11:12:09;;;;;;;6.60;3.90;;;25.50;99.90;;;;;;5010111;28;20422;-84
2021/06/03 11:14:57;;;;;;;8.88;4.30;;;25.50;99.90;;;;;;5009989;28;20030;-82
2021/06/03 11:17:49;;;;;;;11.48;5.15;;;25.20;99.90;;;;;;5002490;28;20580;-83
2021/06/03 11:20:15;;;;;;;19.15;3.97;;;25.10;99.90;;;;;;5009845;28;20498;-84
2021/06/03 11:22:40;;;;;;;8.25;4.65;;;24.90;99.90;;;;;;5010200;28;20038;-84
2021/06/03 11:25:06;;;;;;;8.70;4.40;;;24.90;99.90;;;;;;5011240;28;20026;-81
2021/06/03 11:27:39;;;;;;;10.15;4.80;;;25.00;99.90;;;;;;5011546;28;20635;-82
2021/06/03 11:30:10;;;;;;;9.48;3.90;;;25.10;99.90;;;;;;5012810;28;20489;-81
2021/06/03 11:32:39;;;;;;;5.00;4.10;;;25.00;99.90;;;;;;5012813;28;20060;-82
2021/06/03 11:35:08;;;;;;;11.00;4.57;;;24.70;99.90;;;;;;5027851;28;20117;-82
2021/06/03 11:37:38;;;;;;;15.57;4.72;;;24.60;99.90;;;;;;5011396;28;20066;-82
2021/06/03 11:40:07;;;;;;;7.28;4.43;;;24.30;99.90;;;;;;5011382;28;20018;-82
2021/06/03 11:42:41;;;;;;;7.72;5.38;;;24.00;99.90;;;;;;5011358;28;20026;-81
2021/06/03 11:45:11;;;;;;;9.60;5.35;;;23.90;99.90;;;;;;5011045;28;20048;-82
2021/06/03 11:47:37;;;;;;;13.18;4.97;;;23.80;99.90;;;;;;5011389;28;20402;-82
2021/06/03 11:50:12;;;;;;;8.15;5.15;;;24.00;99.90;;;;;;5011229;28;20070;-81
2021/06/03 11:52:38;;;;;;;10.55;5.40;;;23.70;99.90;;;;;;5012153;28;20100;-82
2021/06/03 11:55:06;;;;;;;13.32;5.30;;;23.90;99.90;;;;;;5011224;28;20062;-82
2021/06/03 11:57:35;;;;;;;10.10;5.57;;;23.80;99.90;;;;;;5012260;28;20026;-81
2021/06/03 12:00:09;;;;;;;10.07;5.60;;;23.60;99.90;;;;;;5012081;28;20378;-81
2021/06/03 12:02:44;;;;;;;9.68;5.72;;;23.40;99.90;;;;;;5011215;28;20033;-81
2021/06/03 12:05:10;;;;;;;7.97;5.72;;;23.20;99.90;;;;;;5010486;28;20022;-81
2021/06/03 12:07:47;;;;;;;23.35;6.38;;;23.10;99.90;;;;;;5012429;28;20018;-81
2021/06/03 12:10:38;;;;;;;8.30;5.88;;;22.90;99.90;;;;;;5012076;28;20495;-82
2021/06/03 12:13:15;;;;;;;9.25;6.80;;;22.80;99.90;;;;;;5012420;28;20552;-81
2021/06/03 12:15:42;;;;;;;24.23;7.10;;;22.70;99.90;;;;;;5011855;28;20037;-81
2021/06/03 12:18:07;;;;;;;8.48;5.88;;;22.50;99.90;;;;;;5011954;28;20394;-82
2021/06/03 12:20:33;;;;;;;7.05;5.72;;;22.50;99.90;;;;;;5010937;28;20025;-81
2021/06/03 12:23:06;;;;;;;10.70;6.20;;;22.40;99.90;;;;;;5010985;28;20018;-82
2021/06/03 12:25:36;;;;;;;14.07;7.88;;;22.30;99.90;;;;;;5010557;28;20037;-81
2021/06/03 12:28:04;;;;;;;11.40;7.55;;;22.30;99.90;;;;;;5012183;28;20026;-81
2021/06/03 12:30:33;;;;;;;11.30;7.13;;;22.20;99.90;;;;;;5011839;28;20026;-82
2021/06/03 12:33:01;;;;;;;13.93;8.63;;;21.90;99.90;;;;;;5012158;28;20109;-81
2021/06/03 12:35:34;;;;;;;10.73;8.00;;;21.80;99.90;;;;;;5010381;28;20022;-82
2021/06/03 12:38:01;;;;;;;11.65;8.90;;;21.50;99.90;;;;;;5011814;28;20054;-82
2021/06/03 12:40:27;;;;;;;13.77;8.93;;;21.20;99.90;;;;;;5010699;28;20117;-82